sensor_id;sensor_type;location;lat;lon;timestamp;P1;durP1;ratioP1;P2;durP2;ratioP2
54360;SDS011;40258;53.936;27.540;2022-09-16T00:01:27;7.00;;;3.83;;
54360;SDS011;40258;53.936;27.540;2022-09-16T00:03:56;7.63;;;4.43;;
54360;SDS011;40258;53.936;27.540;2022-09-16T00:06:27;8.75;;;4.35;;
54360;SDS011;40258;53.936;27.540;2022-09-16T00:08:57;6.15;;;3.95;;
54360;SDS011;40258;53.936;27.540;2022-09-16T00:11:27;8.80;;;4.10;;
54360;SDS011;40258;53.936;27.540;2022-09-16T00:13:59;8.18;;;4.03;;
54360;SDS011;40258;53.936;27.540;2022-09-16T00:16:28;6.97;;;4.20;;
54360;SDS011;40258;53.936;27.540;2022-09-16T00:18:57;8.55;;;4.30;;
54360;SDS011;40258;53.936;27.540;2022-09-16T00:21:29;8.15;;;4.30;;
54360;SDS011;40258;53.936;27.540;2022-09-16T00:23:58;7.32;;;4.13;;
54360;SDS011;40258;53.936;27.540;2022-09-16T00:26:28;11.38;;;4.43;;
54360;SDS011;40258;53.936;27.540;2022-09-16T00:28:57;8.90;;;4.07;;
54360;SDS011;40258;53.936;27.540;2022-09-16T00:31:25;6.65;;;4.07;;
54360;SDS011;40258;53.936;27.540;2022-09-16T00:33:55;8.43;;;4.55;;
54360;SDS011;40258;53.936;27.540;2022-09-16T00:36:23;9.02;;;4.35;;
54360;SDS011;40258;53.936;27.540;2022-09-16T00:38:53;9.65;;;4.35;;
54360;SDS011;40258;53.936;27.540;2022-09-16T00:41:23;7.68;;;4.40;;
54360;SDS011;40258;53.936;27.540;2022-09-16T00:43:58;8.57;;;4.07;;
54360;SDS011;40258;53.936;27.540;2022-09-16T00:46:31;9.05;;;4.47;;
54360;SDS011;40258;53.936;27.540;2022-09-16T00:49:05;8.15;;;3.95;;
54360;SDS011;40258;53.936;27.540;2022-09-16T00:51:41;7.60;;;4.35;;
54360;SDS011;40258;53.936;27.540;2022-09-16T00:54:14;7.80;;;4.40;;
54360;SDS011;40258;53.936;27.540;2022-09-16T00:56:45;8.65;;;4.43;;
54360;SDS011;40258;53.936;27.540;2022-09-16T00:59:18;7.90;;;4.53;;
54360;SDS011;40258;53.936;27.540;2022-09-16T01:01:52;9.27;;;4.28;;
54360;SDS011;40258;53.936;27.540;2022-09-16T01:04:23;7.57;;;4.10;;
54360;SDS011;40258;53.936;27.540;2022-09-16T01:06:57;8.65;;;4.00;;
54360;SDS011;40258;53.936;27.540;2022-09-16T01:09:28;9.95;;;4.45;;
54360;SDS011;40258;53.936;27.540;2022-09-16T01:11:58;9.38;;;4.68;;
54360;SDS011;40258;53.936;27.540;2022-09-16T01:14:27;8.43;;;4.55;;
54360;SDS011;40258;53.936;27.540;2022-09-16T01:17:21;8.18;;;4.45;;
54360;SDS011;40258;53.936;27.540;2022-09-16T01:20:20;9.53;;;4.30;;
54360;SDS011;40258;53.936;27.540;2022-09-16T01:26:47;8.50;;;4.25;;
54360;SDS011;40258;53.936;27.540;2022-09-16T01:29:49;7.70;;;4.40;;
54360;SDS011;40258;53.936;27.540;2022-09-16T01:32:49;7.80;;;3.95;;
54360;SDS011;40258;53.936;27.540;2022-09-16T01:38:39;8.70;;;4.68;;
54360;SDS011;40258;53.936;27.540;2022-09-16T01:41:27;8.05;;;4.18;;
54360;SDS011;40258;53.936;27.540;2022-09-16T01:44:06;7.07;;;4.43;;
54360;SDS011;40258;53.936;27.540;2022-09-16T01:46:46;9.68;;;4.25;;
54360;SDS011;40258;53.936;27.540;2022-09-16T01:49:25;6.65;;;3.60;;
54360;SDS011;40258;53.936;27.540;2022-09-16T01:52:08;6.32;;;3.78;;
54360;SDS011;40258;53.936;27.540;2022-09-16T01:54:50;9.32;;;4.22;;
54360;SDS011;40258;53.936;27.540;2022-09-16T01:57:26;6.15;;;3.58;;
54360;SDS011;40258;53.936;27.540;2022-09-16T02:00:04;7.45;;;3.78;;
54360;SDS011;40258;53.936;27.540;2022-09-16T02:02:37;9.82;;;3.97;;
54360;SDS011;40258;53.936;27.540;2022-09-16T02:05:13;8.68;;;3.83;;
54360;SDS011;40258;53.936;27.540;2022-09-16T02:07:48;6.07;;;3.30;;
54360;SDS011;40258;53.936;27.540;2022-09-16T02:10:23;7.38;;;3.42;;
54360;SDS011;40258;53.936;27.540;2022-09-16T02:12:57;8.38;;;3.70;;
54360;SDS011;40258;53.936;27.540;2022-09-16T02:15:32;5.13;;;2.53;;
54360;SDS011;40258;53.936;27.540;2022-09-16T02:18:03;7.18;;;3.58;;
54360;SDS011;40258;53.936;27.540;2022-09-16T02:20:38;7.45;;;3.95;;
54360;SDS011;40258;53.936;27.540;2022-09-16T02:23:13;7.03;;;3.30;;
54360;SDS011;40258;53.936;27.540;2022-09-16T02:25:46;8.85;;;3.28;;
54360;SDS011;40258;53.936;27.540;2022-09-16T02:28:17;6.57;;;3.40;;
54360;SDS011;40258;53.936;27.540;2022-09-16T02:30:52;8.00;;;4.00;;
54360;SDS011;40258;53.936;27.540;2022-09-16T02:33:27;7.57;;;3.72;;
54360;SDS011;40258;53.936;27.540;2022-09-16T02:36:01;8.35;;;4.30;;
54360;SDS011;40258;53.936;27.540;2022-09-16T02:38:33;7.25;;;3.60;;
54360;SDS011;40258;53.936;27.540;2022-09-16T02:41:07;7.05;;;3.28;;
54360;SDS011;40258;53.936;27.540;2022-09-16T02:43:39;4.25;;;2.90;;
54360;SDS011;40258;53.936;27.540;2022-09-16T02:46:10;9.98;;;3.95;;
54360;SDS011;40258;53.936;27.540;2022-09-16T02:48:52;5.75;;;3.17;;
54360;SDS011;40258;53.936;27.540;2022-09-16T02:51:32;8.07;;;3.25;;
54360;SDS011;40258;53.936;27.540;2022-09-16T02:54:11;8.60;;;3.30;;
54360;SDS011;40258;53.936;27.540;2022-09-16T02:56:46;6.67;;;3.00;;
54360;SDS011;40258;53.936;27.540;2022-09-16T02:59:15;7.22;;;3.15;;
54360;SDS011;40258;53.936;27.540;2022-09-16T03:01:45;5.15;;;2.85;;
54360;SDS011;40258;53.936;27.540;2022-09-16T03:04:15;7.88;;;3.28;;
54360;SDS011;40258;53.936;27.540;2022-09-16T03:06:47;5.25;;;3.20;;
54360;SDS011;40258;53.936;27.540;2022-09-16T03:09:16;10.18;;;4.50;;
54360;SDS011;40258;53.936;27.540;2022-09-16T03:15:06;4.57;;;3.00;;
54360;SDS011;40258;53.936;27.540;2022-09-16T03:17:57;5.60;;;3.00;;
54360;SDS011;40258;53.936;27.540;2022-09-16T03:21:10;8.95;;;3.40;;
54360;SDS011;40258;53.936;27.540;2022-09-16T03:23:51;7.20;;;3.08;;
54360;SDS011;40258;53.936;27.540;2022-09-16T03:26:28;7.00;;;3.08;;
54360;SDS011;40258;53.936;27.540;2022-09-16T03:29:05;6.20;;;2.67;;
54360;SDS011;40258;53.936;27.540;2022-09-16T03:31:44;6.10;;;2.65;;
54360;SDS011;40258;53.936;27.540;2022-09-16T03:34:21;5.20;;;2.67;;
54360;SDS011;40258;53.936;27.540;2022-09-16T03:36:57;8.23;;;3.17;;
54360;SDS011;40258;53.936;27.540;2022-09-16T03:39:31;7.38;;;2.83;;
54360;SDS011;40258;53.936;27.540;2022-09-16T03:42:01;6.78;;;2.92;;
54360;SDS011;40258;53.936;27.540;2022-09-16T03:44:33;6.30;;;3.20;;
54360;SDS011;40258;53.936;27.540;2022-09-16T03:47:04;5.47;;;2.88;;
54360;SDS011;40258;53.936;27.540;2022-09-16T03:49:34;6.10;;;2.83;;
54360;SDS011;40258;53.936;27.540;2022-09-16T03:52:03;5.95;;;3.40;;
54360;SDS011;40258;53.936;27.540;2022-09-16T03:54:34;4.35;;;2.53;;
54360;SDS011;40258;53.936;27.540;2022-09-16T03:57:04;6.45;;;3.05;;
54360;SDS011;40258;53.936;27.540;2022-09-16T03:59:33;5.80;;;2.90;;
54360;SDS011;40258;53.936;27.540;2022-09-16T04:02:01;6.60;;;2.55;;
54360;SDS011;40258;53.936;27.540;2022-09-16T04:04:30;5.30;;;2.70;;
54360;SDS011;40258;53.936;27.540;2022-09-16T04:06:58;5.57;;;2.65;;
54360;SDS011;40258;53.936;27.540;2022-09-16T04:09:27;4.97;;;2.80;;
54360;SDS011;40258;53.936;27.540;2022-09-16T04:11:57;5.28;;;2.83;;
54360;SDS011;40258;53.936;27.540;2022-09-16T04:14:25;6.53;;;2.78;;
54360;SDS011;40258;53.936;27.540;2022-09-16T04:16:55;6.38;;;2.65;;
54360;SDS011;40258;53.936;27.540;2022-09-16T04:19:23;4.50;;;2.80;;
54360;SDS011;40258;53.936;27.540;2022-09-16T04:21:52;6.95;;;2.83;;
54360;SDS011;40258;53.936;27.540;2022-09-16T04:24:21;7.10;;;3.28;;
54360;SDS011;40258;53.936;27.540;2022-09-16T04:26:49;6.25;;;2.97;;
54360;SDS011;40258;53.936;27.540;2022-09-16T04:29:20;5.57;;;3.03;;
54360;SDS011;40258;53.936;27.540;2022-09-16T04:31:48;6.80;;;3.00;;
54360;SDS011;40258;53.936;27.540;2022-09-16T04:34:16;6.80;;;3.42;;
54360;SDS011;40258;53.936;27.540;2022-09-16T04:36:45;10.45;;;3.72;;
54360;SDS011;40258;53.936;27.540;2022-09-16T04:39:14;5.85;;;2.92;;
54360;SDS011;40258;53.936;27.540;2022-09-16T04:41:42;5.68;;;2.92;;
54360;SDS011;40258;53.936;27.540;2022-09-16T04:44:11;6.85;;;3.30;;
54360;SDS011;40258;53.936;27.540;2022-09-16T04:46:41;5.38;;;3.55;;
54360;SDS011;40258;53.936;27.540;2022-09-16T04:49:10;6.93;;;3.45;;
54360;SDS011;40258;53.936;27.540;2022-09-16T04:51:38;8.48;;;3.47;;
54360;SDS011;40258;53.936;27.540;2022-09-16T04:54:07;6.45;;;3.50;;
54360;SDS011;40258;53.936;27.540;2022-09-16T04:56:37;6.82;;;3.17;;
54360;SDS011;40258;53.936;27.540;2022-09-16T04:59:06;6.90;;;3.33;;
54360;SDS011;40258;53.936;27.540;2022-09-16T05:01:37;8.30;;;3.40;;
54360;SDS011;40258;53.936;27.540;2022-09-16T05:04:08;6.75;;;3.00;;
54360;SDS011;40258;53.936;27.540;2022-09-16T05:06:38;9.35;;;3.50;;
54360;SDS011;40258;53.936;27.540;2022-09-16T05:09:08;6.38;;;3.30;;
54360;SDS011;40258;53.936;27.540;2022-09-16T05:11:38;6.10;;;2.70;;
54360;SDS011;40258;53.936;27.540;2022-09-16T05:14:09;5.80;;;2.80;;
54360;SDS011;40258;53.936;27.540;2022-09-16T05:16:42;10.32;;;3.17;;
54360;SDS011;40258;53.936;27.540;2022-09-16T05:19:13;6.03;;;2.97;;
54360;SDS011;40258;53.936;27.540;2022-09-16T05:21:42;7.38;;;3.45;;
54360;SDS011;40258;53.936;27.540;2022-09-16T05:24:11;6.07;;;2.92;;
54360;SDS011;40258;53.936;27.540;2022-09-16T05:26:41;7.10;;;2.70;;
54360;SDS011;40258;53.936;27.540;2022-09-16T05:29:10;12.40;;;3.22;;
54360;SDS011;40258;53.936;27.540;2022-09-16T05:31:42;7.60;;;3.60;;
54360;SDS011;40258;53.936;27.540;2022-09-16T05:34:15;9.93;;;2.97;;
54360;SDS011;40258;53.936;27.540;2022-09-16T05:36:46;6.72;;;2.85;;
54360;SDS011;40258;53.936;27.540;2022-09-16T05:39:19;9.63;;;3.03;;
54360;SDS011;40258;53.936;27.540;2022-09-16T05:41:48;10.32;;;3.10;;
54360;SDS011;40258;53.936;27.540;2022-09-16T05:44:20;6.53;;;2.70;;
54360;SDS011;40258;53.936;27.540;2022-09-16T05:46:48;9.02;;;2.72;;
54360;SDS011;40258;53.936;27.540;2022-09-16T05:49:19;12.15;;;2.95;;
54360;SDS011;40258;53.936;27.540;2022-09-16T05:51:48;6.25;;;2.33;;
54360;SDS011;40258;53.936;27.540;2022-09-16T05:54:18;5.03;;;2.20;;
54360;SDS011;40258;53.936;27.540;2022-09-16T05:56:50;6.65;;;2.72;;
54360;SDS011;40258;53.936;27.540;2022-09-16T05:59:19;9.73;;;2.67;;
54360;SDS011;40258;53.936;27.540;2022-09-16T06:01:48;11.13;;;2.35;;
54360;SDS011;40258;53.936;27.540;2022-09-16T06:04:17;8.93;;;2.40;;
54360;SDS011;40258;53.936;27.540;2022-09-16T06:06:46;9.07;;;2.80;;
54360;SDS011;40258;53.936;27.540;2022-09-16T06:09:15;8.73;;;2.42;;
54360;SDS011;40258;53.936;27.540;2022-09-16T06:11:47;7.45;;;2.47;;
54360;SDS011;40258;53.936;27.540;2022-09-16T06:14:21;6.63;;;2.30;;
54360;SDS011;40258;53.936;27.540;2022-09-16T06:16:50;6.03;;;1.98;;
54360;SDS011;40258;53.936;27.540;2022-09-16T06:19:19;7.03;;;2.60;;
54360;SDS011;40258;53.936;27.540;2022-09-16T06:21:48;7.47;;;2.92;;
54360;SDS011;40258;53.936;27.540;2022-09-16T06:24:17;6.78;;;2.20;;
54360;SDS011;40258;53.936;27.540;2022-09-16T06:26:47;11.40;;;2.20;;
54360;SDS011;40258;53.936;27.540;2022-09-16T06:29:16;10.75;;;2.75;;
54360;SDS011;40258;53.936;27.540;2022-09-16T06:31:45;8.75;;;2.40;;
54360;SDS011;40258;53.936;27.540;2022-09-16T06:34:14;7.53;;;2.30;;
54360;SDS011;40258;53.936;27.540;2022-09-16T06:36:45;5.88;;;2.00;;
54360;SDS011;40258;53.936;27.540;2022-09-16T06:39:14;9.18;;;2.38;;
54360;SDS011;40258;53.936;27.540;2022-09-16T06:41:43;11.93;;;2.65;;
54360;SDS011;40258;53.936;27.540;2022-09-16T06:44:12;8.75;;;2.72;;
54360;SDS011;40258;53.936;27.540;2022-09-16T06:46:40;10.20;;;2.47;;
54360;SDS011;40258;53.936;27.540;2022-09-16T06:49:09;7.47;;;2.28;;
54360;SDS011;40258;53.936;27.540;2022-09-16T06:51:38;8.15;;;1.90;;
54360;SDS011;40258;53.936;27.540;2022-09-16T06:54:08;7.10;;;1.80;;
54360;SDS011;40258;53.936;27.540;2022-09-16T06:56:37;5.55;;;1.90;;
54360;SDS011;40258;53.936;27.540;2022-09-16T06:59:06;7.88;;;2.22;;
54360;SDS011;40258;53.936;27.540;2022-09-16T07:01:38;6.45;;;2.00;;
54360;SDS011;40258;53.936;27.540;2022-09-16T07:04:07;5.10;;;1.90;;
54360;SDS011;40258;53.936;27.540;2022-09-16T07:06:38;8.52;;;2.35;;
54360;SDS011;40258;53.936;27.540;2022-09-16T07:09:08;5.85;;;1.42;;
54360;SDS011;40258;53.936;27.540;2022-09-16T07:11:37;5.75;;;2.13;;
54360;SDS011;40258;53.936;27.540;2022-09-16T07:14:06;9.10;;;1.92;;
54360;SDS011;40258;53.936;27.540;2022-09-16T07:16:35;5.65;;;1.90;;
54360;SDS011;40258;53.936;27.540;2022-09-16T07:19:04;5.72;;;1.85;;
54360;SDS011;40258;53.936;27.540;2022-09-16T07:21:32;6.53;;;1.95;;
54360;SDS011;40258;53.936;27.540;2022-09-16T07:24:01;7.13;;;1.90;;
54360;SDS011;40258;53.936;27.540;2022-09-16T07:26:32;6.63;;;2.63;;
54360;SDS011;40258;53.936;27.540;2022-09-16T07:29:03;7.45;;;2.83;;
54360;SDS011;40258;53.936;27.540;2022-09-16T07:31:34;8.10;;;2.08;;
54360;SDS011;40258;53.936;27.540;2022-09-16T07:34:04;7.95;;;2.15;;
54360;SDS011;40258;53.936;27.540;2022-09-16T07:36:35;6.53;;;1.58;;
54360;SDS011;40258;53.936;27.540;2022-09-16T07:39:06;8.65;;;1.80;;
54360;SDS011;40258;53.936;27.540;2022-09-16T07:41:37;7.43;;;2.03;;
54360;SDS011;40258;53.936;27.540;2022-09-16T07:44:10;10.82;;;1.83;;
54360;SDS011;40258;53.936;27.540;2022-09-16T07:46:40;7.95;;;2.15;;
54360;SDS011;40258;53.936;27.540;2022-09-16T07:49:10;8.02;;;2.00;;
54360;SDS011;40258;53.936;27.540;2022-09-16T07:51:42;6.80;;;1.58;;
54360;SDS011;40258;53.936;27.540;2022-09-16T07:54:12;7.35;;;2.20;;
54360;SDS011;40258;53.936;27.540;2022-09-16T07:56:44;10.40;;;2.08;;
54360;SDS011;40258;53.936;27.540;2022-09-16T07:59:14;8.07;;;2.03;;
54360;SDS011;40258;53.936;27.540;2022-09-16T08:01:46;11.93;;;2.20;;
54360;SDS011;40258;53.936;27.540;2022-09-16T08:04:15;12.15;;;1.98;;
54360;SDS011;40258;53.936;27.540;2022-09-16T08:06:44;13.95;;;2.67;;
54360;SDS011;40258;53.936;27.540;2022-09-16T08:09:13;5.15;;;1.70;;
54360;SDS011;40258;53.936;27.540;2022-09-16T08:11:42;9.68;;;1.70;;
54360;SDS011;40258;53.936;27.540;2022-09-16T08:14:11;7.35;;;1.98;;
54360;SDS011;40258;53.936;27.540;2022-09-16T08:16:40;5.57;;;2.20;;
54360;SDS011;40258;53.936;27.540;2022-09-16T08:19:09;7.72;;;2.20;;
54360;SDS011;40258;53.936;27.540;2022-09-16T08:21:38;13.45;;;2.47;;
54360;SDS011;40258;53.936;27.540;2022-09-16T08:24:07;6.97;;;1.67;;
54360;SDS011;40258;53.936;27.540;2022-09-16T08:26:36;6.20;;;1.80;;
54360;SDS011;40258;53.936;27.540;2022-09-16T08:29:06;3.88;;;1.55;;
54360;SDS011;40258;53.936;27.540;2022-09-16T08:31:35;10.30;;;2.15;;
54360;SDS011;40258;53.936;27.540;2022-09-16T08:34:04;6.10;;;2.35;;
54360;SDS011;40258;53.936;27.540;2022-09-16T08:36:33;9.13;;;2.20;;
54360;SDS011;40258;53.936;27.540;2022-09-16T08:39:01;6.15;;;1.70;;
54360;SDS011;40258;53.936;27.540;2022-09-16T08:44:49;6.20;;;1.80;;
54360;SDS011;40258;53.936;27.540;2022-09-16T08:47:30;7.93;;;1.77;;
54360;SDS011;40258;53.936;27.540;2022-09-16T08:50:12;4.22;;;2.08;;
54360;SDS011;40258;53.936;27.540;2022-09-16T08:52:44;6.25;;;2.47;;
54360;SDS011;40258;53.936;27.540;2022-09-16T08:55:15;5.38;;;1.90;;
54360;SDS011;40258;53.936;27.540;2022-09-16T08:57:52;9.38;;;2.45;;
54360;SDS011;40258;53.936;27.540;2022-09-16T09:00:26;8.52;;;2.03;;
54360;SDS011;40258;53.936;27.540;2022-09-16T09:02:54;5.50;;;1.73;;
54360;SDS011;40258;53.936;27.540;2022-09-16T09:05:30;6.00;;;1.63;;
54360;SDS011;40258;53.936;27.540;2022-09-16T09:08:13;5.47;;;1.60;;
54360;SDS011;40258;53.936;27.540;2022-09-16T09:11:08;9.53;;;2.40;;
54360;SDS011;40258;53.936;27.540;2022-09-16T09:13:46;8.30;;;2.10;;
54360;SDS011;40258;53.936;27.540;2022-09-16T09:16:33;8.70;;;2.22;;
54360;SDS011;40258;53.936;27.540;2022-09-16T09:19:14;10.90;;;2.58;;
54360;SDS011;40258;53.936;27.540;2022-09-16T09:21:58;6.55;;;1.67;;
54360;SDS011;40258;53.936;27.540;2022-09-16T09:24:46;6.57;;;2.13;;
54360;SDS011;40258;53.936;27.540;2022-09-16T09:27:35;5.60;;;1.67;;
54360;SDS011;40258;53.936;27.540;2022-09-16T09:30:18;8.30;;;1.60;;
54360;SDS011;40258;53.936;27.540;2022-09-16T09:32:53;10.70;;;2.00;;
54360;SDS011;40258;53.936;27.540;2022-09-16T09:35:44;6.65;;;1.80;;
54360;SDS011;40258;53.936;27.540;2022-09-16T09:38:34;4.38;;;1.85;;
54360;SDS011;40258;53.936;27.540;2022-09-16T09:47:00;13.55;;;2.13;;
54360;SDS011;40258;53.936;27.540;2022-09-16T09:49:36;6.07;;;1.60;;
54360;SDS011;40258;53.936;27.540;2022-09-16T09:52:13;8.05;;;1.80;;
54360;SDS011;40258;53.936;27.540;2022-09-16T09:54:47;4.45;;;1.40;;
54360;SDS011;40258;53.936;27.540;2022-09-16T09:57:20;5.70;;;1.60;;
54360;SDS011;40258;53.936;27.540;2022-09-16T09:59:57;8.13;;;1.80;;
54360;SDS011;40258;53.936;27.540;2022-09-16T10:02:38;6.78;;;2.38;;
54360;SDS011;40258;53.936;27.540;2022-09-16T10:05:11;6.10;;;1.42;;
54360;SDS011;40258;53.936;27.540;2022-09-16T10:07:48;2.70;;;1.13;;
54360;SDS011;40258;53.936;27.540;2022-09-16T10:10:21;5.50;;;1.40;;
54360;SDS011;40258;53.936;27.540;2022-09-16T10:12:52;7.13;;;1.67;;
54360;SDS011;40258;53.936;27.540;2022-09-16T10:15:21;6.40;;;1.55;;
54360;SDS011;40258;53.936;27.540;2022-09-16T10:17:53;6.07;;;1.50;;
54360;SDS011;40258;53.936;27.540;2022-09-16T10:20:27;6.07;;;1.88;;
54360;SDS011;40258;53.936;27.540;2022-09-16T10:23:01;7.40;;;1.70;;
54360;SDS011;40258;53.936;27.540;2022-09-16T10:25:32;7.43;;;1.60;;
54360;SDS011;40258;53.936;27.540;2022-09-16T10:28:02;6.30;;;1.77;;
54360;SDS011;40258;53.936;27.540;2022-09-16T10:30:42;10.18;;;1.70;;
54360;SDS011;40258;53.936;27.540;2022-09-16T10:33:16;8.77;;;1.85;;
54360;SDS011;40258;53.936;27.540;2022-09-16T10:35:53;8.32;;;1.60;;
54360;SDS011;40258;53.936;27.540;2022-09-16T10:38:26;5.38;;;2.00;;
54360;SDS011;40258;53.936;27.540;2022-09-16T10:41:05;11.18;;;2.65;;
54360;SDS011;40258;53.936;27.540;2022-09-16T10:43:36;8.73;;;2.00;;
54360;SDS011;40258;53.936;27.540;2022-09-16T10:46:12;5.00;;;1.98;;
54360;SDS011;40258;53.936;27.540;2022-09-16T10:48:42;4.95;;;1.83;;
54360;SDS011;40258;53.936;27.540;2022-09-16T10:51:20;8.25;;;1.48;;
54360;SDS011;40258;53.936;27.540;2022-09-16T10:53:51;4.82;;;1.60;;
54360;SDS011;40258;53.936;27.540;2022-09-16T10:56:24;5.72;;;1.77;;
54360;SDS011;40258;53.936;27.540;2022-09-16T10:59:02;5.90;;;1.52;;
54360;SDS011;40258;53.936;27.540;2022-09-16T11:01:37;5.63;;;1.48;;
54360;SDS011;40258;53.936;27.540;2022-09-16T11:04:30;4.70;;;1.67;;
54360;SDS011;40258;53.936;27.540;2022-09-16T11:07:31;4.97;;;1.40;;
54360;SDS011;40258;53.936;27.540;2022-09-16T11:10:10;5.43;;;1.63;;
54360;SDS011;40258;53.936;27.540;2022-09-16T11:12:54;11.30;;;1.98;;
54360;SDS011;40258;53.936;27.540;2022-09-16T11:15:46;5.50;;;1.58;;
54360;SDS011;40258;53.936;27.540;2022-09-16T11:18:34;6.32;;;1.80;;
54360;SDS011;40258;53.936;27.540;2022-09-16T11:21:17;6.07;;;1.50;;
54360;SDS011;40258;53.936;27.540;2022-09-16T11:27:16;9.13;;;1.88;;
54360;SDS011;40258;53.936;27.540;2022-09-16T11:30:00;6.65;;;1.38;;
54360;SDS011;40258;53.936;27.540;2022-09-16T11:32:43;5.47;;;1.58;;
54360;SDS011;40258;53.936;27.540;2022-09-16T11:35:54;5.38;;;1.70;;
54360;SDS011;40258;53.936;27.540;2022-09-16T11:38:48;3.22;;;1.60;;
54360;SDS011;40258;53.936;27.540;2022-09-16T11:41:30;7.47;;;1.65;;
54360;SDS011;40258;53.936;27.540;2022-09-16T11:44:10;12.57;;;1.60;;
54360;SDS011;40258;53.936;27.540;2022-09-16T11:47:10;5.13;;;1.48;;
54360;SDS011;40258;53.936;27.540;2022-09-16T11:50:17;15.07;;;2.28;;
54360;SDS011;40258;53.936;27.540;2022-09-16T11:56:16;11.53;;;2.07;;
54360;SDS011;40258;53.936;27.540;2022-09-16T11:58:57;7.03;;;1.38;;
54360;SDS011;40258;53.936;27.540;2022-09-16T12:01:35;8.27;;;1.90;;
54360;SDS011;40258;53.936;27.540;2022-09-16T12:04:10;8.10;;;1.50;;
54360;SDS011;40258;53.936;27.540;2022-09-16T12:06:49;5.75;;;1.50;;
54360;SDS011;40258;53.936;27.540;2022-09-16T12:09:28;7.03;;;1.73;;
54360;SDS011;40258;53.936;27.540;2022-09-16T12:12:08;6.40;;;1.48;;
54360;SDS011;40258;53.936;27.540;2022-09-16T12:14:42;7.07;;;1.48;;
54360;SDS011;40258;53.936;27.540;2022-09-16T12:17:19;8.85;;;2.05;;
54360;SDS011;40258;53.936;27.540;2022-09-16T12:19:53;7.03;;;1.48;;
54360;SDS011;40258;53.936;27.540;2022-09-16T12:22:28;6.07;;;1.70;;
54360;SDS011;40258;53.936;27.540;2022-09-16T12:25:02;6.35;;;1.50;;
54360;SDS011;40258;53.936;27.540;2022-09-16T12:27:40;9.70;;;1.85;;
54360;SDS011;40258;53.936;27.540;2022-09-16T12:30:19;7.20;;;1.60;;
54360;SDS011;40258;53.936;27.540;2022-09-16T12:32:53;5.72;;;1.50;;
54360;SDS011;40258;53.936;27.540;2022-09-16T12:35:29;7.28;;;1.83;;
54360;SDS011;40258;53.936;27.540;2022-09-16T12:38:01;3.78;;;1.35;;
54360;SDS011;40258;53.936;27.540;2022-09-16T12:40:34;7.88;;;1.73;;
54360;SDS011;40258;53.936;27.540;2022-09-16T12:46:38;7.60;;;1.38;;
54360;SDS011;40258;53.936;27.540;2022-09-16T12:56:15;8.65;;;1.80;;
54360;SDS011;40258;53.936;27.540;2022-09-16T12:59:09;7.03;;;1.48;;
54360;SDS011;40258;53.936;27.540;2022-09-16T13:02:16;11.07;;;2.03;;
54360;SDS011;40258;53.936;27.540;2022-09-16T13:04:47;10.85;;;1.80;;
54360;SDS011;40258;53.936;27.540;2022-09-16T13:07:20;7.20;;;2.08;;
54360;SDS011;40258;53.936;27.540;2022-09-16T13:10:00;5.50;;;1.67;;
54360;SDS011;40258;53.936;27.540;2022-09-16T13:12:32;7.28;;;1.60;;
54360;SDS011;40258;53.936;27.540;2022-09-16T13:15:02;6.85;;;1.50;;
54360;SDS011;40258;53.936;27.540;2022-09-16T13:17:35;11.43;;;1.85;;
54360;SDS011;40258;53.936;27.540;2022-09-16T13:20:05;17.92;;;2.00;;
54360;SDS011;40258;53.936;27.540;2022-09-16T13:22:43;8.18;;;1.38;;
54360;SDS011;40258;53.936;27.540;2022-09-16T13:25:19;4.22;;;1.30;;
54360;SDS011;40258;53.936;27.540;2022-09-16T13:27:56;5.55;;;1.65;;
54360;SDS011;40258;53.936;27.540;2022-09-16T13:30:29;8.63;;;1.80;;
54360;SDS011;40258;53.936;27.540;2022-09-16T13:36:03;9.57;;;2.17;;
54360;SDS011;40258;53.936;27.540;2022-09-16T13:38:56;8.68;;;2.75;;
54360;SDS011;40258;53.936;27.540;2022-09-16T13:41:28;6.47;;;1.70;;
54360;SDS011;40258;53.936;27.540;2022-09-16T13:44:00;6.90;;;1.40;;
54360;SDS011;40258;53.936;27.540;2022-09-16T13:46:31;9.20;;;1.70;;
54360;SDS011;40258;53.936;27.540;2022-09-16T13:49:14;8.55;;;1.95;;
54360;SDS011;40258;53.936;27.540;2022-09-16T13:51:48;9.07;;;1.80;;
54360;SDS011;40258;53.936;27.540;2022-09-16T13:54:24;8.25;;;1.60;;
54360;SDS011;40258;53.936;27.540;2022-09-16T13:57:00;8.45;;;1.70;;
54360;SDS011;40258;53.936;27.540;2022-09-16T14:00:03;7.55;;;1.63;;
54360;SDS011;40258;53.936;27.540;2022-09-16T14:02:45;7.05;;;2.08;;
54360;SDS011;40258;53.936;27.540;2022-09-16T14:05:38;8.07;;;2.28;;
54360;SDS011;40258;53.936;27.540;2022-09-16T14:08:35;5.20;;;1.65;;
54360;SDS011;40258;53.936;27.540;2022-09-16T14:11:15;6.60;;;1.48;;
54360;SDS011;40258;53.936;27.540;2022-09-16T14:13:52;7.93;;;1.88;;
54360;SDS011;40258;53.936;27.540;2022-09-16T14:16:23;7.38;;;1.73;;
54360;SDS011;40258;53.936;27.540;2022-09-16T14:18:55;6.47;;;1.50;;
54360;SDS011;40258;53.936;27.540;2022-09-16T14:21:31;4.87;;;1.53;;
54360;SDS011;40258;53.936;27.540;2022-09-16T14:24:07;6.97;;;1.70;;
54360;SDS011;40258;53.936;27.540;2022-09-16T14:26:52;8.05;;;1.98;;
54360;SDS011;40258;53.936;27.540;2022-09-16T14:29:22;5.22;;;1.70;;
54360;SDS011;40258;53.936;27.540;2022-09-16T14:31:53;8.35;;;2.00;;
54360;SDS011;40258;53.936;27.540;2022-09-16T14:34:24;9.48;;;1.73;;
54360;SDS011;40258;53.936;27.540;2022-09-16T14:36:59;6.80;;;1.60;;
54360;SDS011;40258;53.936;27.540;2022-09-16T14:39:28;4.10;;;1.58;;
54360;SDS011;40258;53.936;27.540;2022-09-16T14:41:58;3.53;;;1.48;;
54360;SDS011;40258;53.936;27.540;2022-09-16T14:44:30;4.65;;;1.63;;
54360;SDS011;40258;53.936;27.540;2022-09-16T14:47:03;7.03;;;1.52;;
54360;SDS011;40258;53.936;27.540;2022-09-16T14:49:42;4.60;;;1.67;;
54360;SDS011;40258;53.936;27.540;2022-09-16T14:52:16;4.15;;;1.50;;
54360;SDS011;40258;53.936;27.540;2022-09-16T14:54:47;5.18;;;1.52;;
54360;SDS011;40258;53.936;27.540;2022-09-16T14:57:16;5.38;;;1.73;;
54360;SDS011;40258;53.936;27.540;2022-09-16T14:59:48;4.95;;;1.35;;
54360;SDS011;40258;53.936;27.540;2022-09-16T15:02:19;5.18;;;1.70;;
54360;SDS011;40258;53.936;27.540;2022-09-16T15:04:54;4.68;;;1.92;;
54360;SDS011;40258;53.936;27.540;2022-09-16T15:07:28;18.75;;;1.83;;
54360;SDS011;40258;53.936;27.540;2022-09-16T15:10:01;8.68;;;1.92;;
54360;SDS011;40258;53.936;27.540;2022-09-16T15:12:34;7.28;;;1.50;;
54360;SDS011;40258;53.936;27.540;2022-09-16T15:15:13;4.28;;;1.58;;
54360;SDS011;40258;53.936;27.540;2022-09-16T15:17:52;5.68;;;1.50;;
54360;SDS011;40258;53.936;27.540;2022-09-16T15:20:26;5.40;;;1.52;;
54360;SDS011;40258;53.936;27.540;2022-09-16T15:23:00;4.80;;;1.80;;
54360;SDS011;40258;53.936;27.540;2022-09-16T15:25:29;6.20;;;1.33;;
54360;SDS011;40258;53.936;27.540;2022-09-16T15:28:04;4.32;;;1.50;;
54360;SDS011;40258;53.936;27.540;2022-09-16T15:30:34;3.78;;;1.52;;
54360;SDS011;40258;53.936;27.540;2022-09-16T15:36:00;4.10;;;1.58;;
54360;SDS011;40258;53.936;27.540;2022-09-16T15:38:34;4.10;;;1.60;;
54360;SDS011;40258;53.936;27.540;2022-09-16T15:41:03;5.40;;;1.45;;
54360;SDS011;40258;53.936;27.540;2022-09-16T15:43:37;5.25;;;1.63;;
54360;SDS011;40258;53.936;27.540;2022-09-16T15:46:12;7.30;;;2.55;;
54360;SDS011;40258;53.936;27.540;2022-09-16T15:48:47;3.67;;;1.33;;
54360;SDS011;40258;53.936;27.540;2022-09-16T15:51:20;4.13;;;1.60;;
54360;SDS011;40258;53.936;27.540;2022-09-16T15:54:00;4.78;;;1.63;;
54360;SDS011;40258;53.936;27.540;2022-09-16T15:56:47;4.28;;;1.60;;
54360;SDS011;40258;53.936;27.540;2022-09-16T15:59:24;8.18;;;2.00;;